sensor_id;sensor_type;location;lat;lon;timestamp;pressure;altitude;pressure_sealevel;temperature;humidity
28167;BME280;15455;53.376;-6.262;2023-03-31T00:01:21;98386.38;;;8.58;100.00
28167;BME280;15455;53.376;-6.262;2023-03-31T00:04:09;98376.91;;;8.57;100.00
28167;BME280;15455;53.376;-6.262;2023-03-31T00:06:58;98387.38;;;8.54;100.00
28167;BME280;15455;53.376;-6.262;2023-03-31T00:09:43;98373.53;;;8.53;100.00
28167;BME280;15455;53.376;-6.262;2023-03-31T00:12:30;98374.50;;;8.50;100.00
28167;BME280;15455;53.376;-6.262;2023-03-31T00:15:16;98365.09;;;8.46;100.00
28167;BME280;15455;53.376;-6.262;2023-03-31T00:18:02;98361.66;;;8.46;100.00
28167;BME280;15455;53.376;-6.262;2023-03-31T00:20:47;98353.03;;;8.44;100.00
28167;BME280;15455;53.376;-6.262;2023-03-31T00:23:32;98360.88;;;8.42;100.00
28167;BME280;15455;53.376;-6.262;2023-03-31T00:26:18;98357.41;;;8.42;100.00
28167;BME280;15455;53.376;-6.262;2023-03-31T00:29:06;98354.81;;;8.42;100.00
28167;BME280;15455;53.376;-6.262;2023-03-31T00:31:53;98348.81;;;8.40;100.00
28167;BME280;15455;53.376;-6.262;2023-03-31T00:34:39;98353.13;;;8.41;100.00
28167;BME280;15455;53.376;-6.262;2023-03-31T00:37:25;98341.97;;;8.37;100.00
28167;BME280;15455;53.376;-6.262;2023-03-31T00:40:11;98331.56;;;8.37;100.00
28167;BME280;15455;53.376;-6.262;2023-03-31T00:42:57;98333.41;;;8.35;100.00
28167;BME280;15455;53.376;-6.262;2023-03-31T00:45:42;98330.84;;;8.33;100.00
28167;BME280;15455;53.376;-6.262;2023-03-31T00:48:30;98330.78;;;8.35;100.00
28167;BME280;15455;53.376;-6.262;2023-03-31T00:51:17;98341.13;;;8.37;100.00
28167;BME280;15455;53.376;-6.262;2023-03-31T00:54:06;98336.88;;;8.34;100.00
28167;BME280;15455;53.376;-6.262;2023-03-31T00:56:54;98333.44;;;8.33;100.00
28167;BME280;15455;53.376;-6.262;2023-03-31T00:59:46;98339.53;;;8.32;100.00
28167;BME280;15455;53.376;-6.262;2023-03-31T01:02:34;98329.19;;;8.31;100.00
28167;BME280;15455;53.376;-6.262;2023-03-31T01:05:38;98332.63;;;8.31;100.00
28167;BME280;15455;53.376;-6.262;2023-03-31T01:08:27;98323.94;;;8.32;100.00
28167;BME280;15455;53.376;-6.262;2023-03-31T01:11:15;98319.53;;;8.34;100.00
28167;BME280;15455;53.376;-6.262;2023-03-31T01:14:02;98318.63;;;8.35;100.00
28167;BME280;15455;53.376;-6.262;2023-03-31T01:16:48;98318.59;;;8.37;100.00
28167;BME280;15455;53.376;-6.262;2023-03-31T01:19:56;98315.16;;;8.37;100.00
28167;BME280;15455;53.376;-6.262;2023-03-31T01:41:48;98295.19;;;8.37;100.00
28167;BME280;15455;53.376;-6.262;2023-03-31T01:48:03;98286.56;;;8.37;100.00
28167;BME280;15455;53.376;-6.262;2023-03-31T01:50:59;98280.53;;;8.34;100.00
28167;BME280;15455;53.376;-6.262;2023-03-31T01:57:09;98277.94;;;8.34;100.00
28167;BME280;15455;53.376;-6.262;2023-03-31T02:05:53;98281.34;;;8.37;100.00
28167;BME280;15455;53.376;-6.262;2023-03-31T02:08:49;98282.25;;;8.35;100.00
28167;BME280;15455;53.376;-6.262;2023-03-31T02:11:37;98279.66;;;8.35;100.00
28167;BME280;15455;53.376;-6.262;2023-03-31T02:14:27;98271.81;;;8.37;100.00
28167;BME280;15455;53.376;-6.262;2023-03-31T02:17:18;98276.09;;;8.38;100.00
28167;BME280;15455;53.376;-6.262;2023-03-31T02:20:06;98266.59;;;8.37;100.00
28167;BME280;15455;53.376;-6.262;2023-03-31T02:22:55;98268.38;;;8.37;100.00
28167;BME280;15455;53.376;-6.262;2023-03-31T02:25:48;98269.16;;;8.39;100.00
28167;BME280;15455;53.376;-6.262;2023-03-31T02:28:34;98273.41;;;8.41;100.00
28167;BME280;15455;53.376;-6.262;2023-03-31T02:31:27;98274.28;;;8.40;100.00
28167;BME280;15455;53.376;-6.262;2023-03-31T02:34:14;98271.69;;;8.40;100.00
28167;BME280;15455;53.376;-6.262;2023-03-31T02:37:00;98272.63;;;8.39;100.00
28167;BME280;15455;53.376;-6.262;2023-03-31T02:39:48;98271.81;;;8.37;100.00
28167;BME280;15455;53.376;-6.262;2023-03-31T02:42:37;98268.41;;;8.35;100.00
28167;BME280;15455;53.376;-6.262;2023-03-31T02:45:52;98270.97;;;8.37;100.00
28167;BME280;15455;53.376;-6.262;2023-03-31T02:48:42;98268.38;;;8.37;100.00
28167;BME280;15455;53.376;-6.262;2023-03-31T03:01:08;98264.94;;;8.34;100.00
28167;BME280;15455;53.376;-6.262;2023-03-31T03:04:10;98262.41;;;8.33;100.00
28167;BME280;15455;53.376;-6.262;2023-03-31T03:10:13;98264.13;;;8.34;100.00
28167;BME280;15455;53.376;-6.262;2023-03-31T03:13:19;98265.81;;;8.35;100.00
28167;BME280;15455;53.376;-6.262;2023-03-31T03:16:26;98264.91;;;8.36;100.00
28167;BME280;15455;53.376;-6.262;2023-03-31T03:19:22;98270.16;;;8.34;100.00
28167;BME280;15455;53.376;-6.262;2023-03-31T03:22:08;98259.75;;;8.34;100.00
28167;BME280;15455;53.376;-6.262;2023-03-31T03:24:54;98263.22;;;8.35;100.00
28167;BME280;15455;53.376;-6.262;2023-03-31T03:27:40;98268.41;;;8.35;100.00
28167;BME280;15455;53.376;-6.262;2023-03-31T03:30:25;98269.31;;;8.34;100.00
28167;BME280;15455;53.376;-6.262;2023-03-31T03:33:10;98264.94;;;8.34;100.00
28167;BME280;15455;53.376;-6.262;2023-03-31T03:36:01;98269.31;;;8.34;100.00
28167;BME280;15455;53.376;-6.262;2023-03-31T03:38:46;98277.09;;;8.34;100.00
28167;BME280;15455;53.376;-6.262;2023-03-31T03:41:32;98265.81;;;8.35;100.00
28167;BME280;15455;53.376;-6.262;2023-03-31T03:44:18;98265.94;;;8.32;100.00
28167;BME280;15455;53.376;-6.262;2023-03-31T03:47:04;98271.97;;;8.32;100.00
28167;BME280;15455;53.376;-6.262;2023-03-31T03:49:49;98272.81;;;8.33;100.00
28167;BME280;15455;53.376;-6.262;2023-03-31T03:52:35;98274.50;;;8.34;100.00
28167;BME280;15455;53.376;-6.262;2023-03-31T03:55:21;98280.50;;;8.36;100.00
28167;BME280;15455;53.376;-6.262;2023-03-31T03:58:07;98285.75;;;8.34;100.00
28167;BME280;15455;53.376;-6.262;2023-03-31T04:00:52;98288.22;;;8.38;100.00
28167;BME280;15455;53.376;-6.262;2023-03-31T04:03:38;98280.53;;;8.34;100.00
28167;BME280;15455;53.376;-6.262;2023-03-31T04:06:23;98280.44;;;8.38;100.00
28167;BME280;15455;53.376;-6.262;2023-03-31T04:09:09;98276.16;;;8.37;100.00
28167;BME280;15455;53.376;-6.262;2023-03-31T04:11:55;98283.03;;;8.38;100.00
28167;BME280;15455;53.376;-6.262;2023-03-31T04:14:41;98288.22;;;8.38;100.00
28167;BME280;15455;53.376;-6.262;2023-03-31T04:17:26;98282.16;;;8.39;100.00
28167;BME280;15455;53.376;-6.262;2023-03-31T04:20:19;98285.63;;;8.38;100.00
28167;BME280;15455;53.376;-6.262;2023-03-31T04:23:05;98287.41;;;8.37;100.00
28167;BME280;15455;53.376;-6.262;2023-03-31T04:25:53;98292.59;;;8.37;100.00
28167;BME280;15455;53.376;-6.262;2023-03-31T04:28:39;98294.34;;;8.37;100.00
28167;BME280;15455;53.376;-6.262;2023-03-31T04:31:26;98297.75;;;8.39;100.00
28167;BME280;15455;53.376;-6.262;2023-03-31T04:34:15;98298.63;;;8.38;100.00
28167;BME280;15455;53.376;-6.262;2023-03-31T04:37:01;98306.44;;;8.38;100.00
28167;BME280;15455;53.376;-6.262;2023-03-31T04:39:46;98304.75;;;8.37;100.00
28167;BME280;15455;53.376;-6.262;2023-03-31T04:42:35;98314.22;;;8.38;100.00
28167;BME280;15455;53.376;-6.262;2023-03-31T04:45:20;98317.63;;;8.40;100.00
28167;BME280;15455;53.376;-6.262;2023-03-31T04:48:06;98321.13;;;8.39;100.00
28167;BME280;15455;53.376;-6.262;2023-03-31T04:50:52;98320.34;;;8.37;100.00
28167;BME280;15455;53.376;-6.262;2023-03-31T04:53:37;98322.88;;;8.38;100.00
28167;BME280;15455;53.376;-6.262;2023-03-31T04:56:23;98326.31;;;8.39;100.00
28167;BME280;15455;53.376;-6.262;2023-03-31T04:59:09;98328.13;;;8.37;100.00
28167;BME280;15455;53.376;-6.262;2023-03-31T05:01:55;98329.03;;;8.35;100.00
28167;BME280;15455;53.376;-6.262;2023-03-31T05:04:41;98335.06;;;8.36;100.00
28167;BME280;15455;53.376;-6.262;2023-03-31T05:07:26;98329.13;;;8.32;100.00
28167;BME280;15455;53.376;-6.262;2023-03-31T05:10:12;98333.44;;;8.33;100.00
28167;BME280;15455;53.376;-6.262;2023-03-31T05:12:57;98336.97;;;8.31;100.00
28167;BME280;15455;53.376;-6.262;2023-03-31T05:15:42;98336.97;;;8.31;100.00
28167;BME280;15455;53.376;-6.262;2023-03-31T05:18:29;98345.66;;;8.30;100.00
28167;BME280;15455;53.376;-6.262;2023-03-31T05:21:16;98339.72;;;8.26;100.00
28167;BME280;15455;53.376;-6.262;2023-03-31T05:24:03;98346.72;;;8.24;100.00
28167;BME280;15455;53.376;-6.262;2023-03-31T05:26:48;98345.94;;;8.22;100.00
28167;BME280;15455;53.376;-6.262;2023-03-31T05:29:37;98350.31;;;8.20;100.00
28167;BME280;15455;53.376;-6.262;2023-03-31T05:32:23;98353.78;;;8.21;100.00
28167;BME280;15455;53.376;-6.262;2023-03-31T05:35:09;98362.41;;;8.21;100.00
28167;BME280;15455;53.376;-6.262;2023-03-31T05:37:55;98364.94;;;8.23;100.00
28167;BME280;15455;53.376;-6.262;2023-03-31T05:40:41;98371.03;;;8.22;100.00
28167;BME280;15455;53.376;-6.262;2023-03-31T05:43:26;98377.16;;;8.21;100.00
28167;BME280;15455;53.376;-6.262;2023-03-31T05:46:11;98387.56;;;8.21;100.00
28167;BME280;15455;53.376;-6.262;2023-03-31T05:48:57;98391.03;;;8.20;100.00
28167;BME280;15455;53.376;-6.262;2023-03-31T05:51:42;98408.38;;;8.19;100.00
28167;BME280;15455;53.376;-6.262;2023-03-31T05:54:28;98401.47;;;8.18;100.00
28167;BME280;15455;53.376;-6.262;2023-03-31T05:57:13;98414.47;;;8.18;100.00
28167;BME280;15455;53.376;-6.262;2023-03-31T05:59:59;98418.72;;;8.21;100.00
28167;BME280;15455;53.376;-6.262;2023-03-31T06:02:44;98427.31;;;8.23;100.00
28167;BME280;15455;53.376;-6.262;2023-03-31T06:05:31;98428.97;;;8.25;100.00
28167;BME280;15455;53.376;-6.262;2023-03-31T06:08:16;98435.88;;;8.26;100.00
28167;BME280;15455;53.376;-6.262;2023-03-31T06:11:09;98441.03;;;8.28;100.00
28167;BME280;15455;53.376;-6.262;2023-03-31T06:13:55;98436.63;;;8.30;100.00
28167;BME280;15455;53.376;-6.262;2023-03-31T06:16:40;98433.09;;;8.32;100.00
28167;BME280;15455;53.376;-6.262;2023-03-31T06:19:26;98441.66;;;8.34;100.00
28167;BME280;15455;53.376;-6.262;2023-03-31T06:22:11;98456.31;;;8.37;100.00
28167;BME280;15455;53.376;-6.262;2023-03-31T06:24:56;98464.06;;;8.39;100.00
28167;BME280;15455;53.376;-6.262;2023-03-31T06:27:41;98472.75;;;8.39;100.00
28167;BME280;15455;53.376;-6.262;2023-03-31T06:30:27;98477.91;;;8.41;100.00
28167;BME280;15455;53.376;-6.262;2023-03-31T06:33:13;98484.72;;;8.43;100.00
28167;BME280;15455;53.376;-6.262;2023-03-31T06:35:58;98492.50;;;8.45;100.00
28167;BME280;15455;53.376;-6.262;2023-03-31T06:38:46;98490.78;;;8.44;100.00
28167;BME280;15455;53.376;-6.262;2023-03-31T06:41:31;98491.66;;;8.44;100.00
28167;BME280;15455;53.376;-6.262;2023-03-31T06:44:17;98497.69;;;8.45;100.00
28167;BME280;15455;53.376;-6.262;2023-03-31T06:47:03;98504.63;;;8.46;100.00
28167;BME280;15455;53.376;-6.262;2023-03-31T06:49:49;98510.66;;;8.46;100.00
28167;BME280;15455;53.376;-6.262;2023-03-31T06:52:35;98511.38;;;8.51;100.00
28167;BME280;15455;53.376;-6.262;2023-03-31T06:55:21;98521.69;;;8.55;100.00
28167;BME280;15455;53.376;-6.262;2023-03-31T06:58:06;98524.22;;;8.56;100.00
28167;BME280;15455;53.376;-6.262;2023-03-31T07:00:52;98530.25;;;8.58;100.00
28167;BME280;15455;53.376;-6.262;2023-03-31T07:03:37;98535.34;;;8.61;100.00
28167;BME280;15455;53.376;-6.262;2023-03-31T07:06:23;98535.25;;;8.64;100.00
28167;BME280;15455;53.376;-6.262;2023-03-31T07:09:09;98546.38;;;8.69;100.00
28167;BME280;15455;53.376;-6.262;2023-03-31T07:11:54;98546.38;;;8.69;100.00
28167;BME280;15455;53.376;-6.262;2023-03-31T07:14:41;98553.09;;;8.77;100.00
28167;BME280;15455;53.376;-6.262;2023-03-31T07:17:27;98559.06;;;8.80;100.00
28167;BME280;15455;53.376;-6.262;2023-03-31T07:20:14;98569.66;;;8.74;100.00
28167;BME280;15455;53.376;-6.262;2023-03-31T07:23:03;98566.13;;;8.77;100.00
28167;BME280;15455;53.376;-6.262;2023-03-31T07:25:49;98575.59;;;8.78;100.00
28167;BME280;15455;53.376;-6.262;2023-03-31T07:28:35;98575.50;;;8.81;100.00
28167;BME280;15455;53.376;-6.262;2023-03-31T07:31:20;98584.81;;;8.88;100.00
28167;BME280;15455;53.376;-6.262;2023-03-31T07:34:06;98585.63;;;8.90;100.00
28167;BME280;15455;53.376;-6.262;2023-03-31T07:36:54;98594.09;;;8.97;100.00
28167;BME280;15455;53.376;-6.262;2023-03-31T07:39:39;98596.75;;;8.95;100.00
28167;BME280;15455;53.376;-6.262;2023-03-31T07:42:25;98598.41;;;8.98;100.00
28167;BME280;15455;53.376;-6.262;2023-03-31T07:45:10;98603.41;;;9.04;100.00
28167;BME280;15455;53.376;-6.262;2023-03-31T07:47:55;98611.97;;;9.08;100.00
28167;BME280;15455;53.376;-6.262;2023-03-31T07:50:41;98610.28;;;9.07;100.00
28167;BME280;15455;53.376;-6.262;2023-03-31T07:53:35;98612.88;;;9.07;100.00
28167;BME280;15455;53.376;-6.262;2023-03-31T07:56:23;98617.09;;;9.11;100.00
28167;BME280;15455;53.376;-6.262;2023-03-31T07:59:08;98620.25;;;9.20;100.00
28167;BME280;15455;53.376;-6.262;2023-03-31T08:01:54;98631.47;;;9.23;100.00
28167;BME280;15455;53.376;-6.262;2023-03-31T08:04:39;98635.63;;;9.28;100.00
28167;BME280;15455;53.376;-6.262;2023-03-31T08:07:28;98637.19;;;9.34;100.00
28167;BME280;15455;53.376;-6.262;2023-03-31T08:10:24;98643.25;;;9.34;100.00
28167;BME280;15455;53.376;-6.262;2023-03-31T08:13:10;98647.59;;;9.34;100.00
28167;BME280;15455;53.376;-6.262;2023-03-31T08:15:55;98647.72;;;9.31;100.00
28167;BME280;15455;53.376;-6.262;2023-03-31T08:18:41;98649.53;;;9.29;100.00
28167;BME280;15455;53.376;-6.262;2023-03-31T08:21:27;98662.56;;;9.27;100.00
28167;BME280;15455;53.376;-6.262;2023-03-31T08:24:13;98663.38;;;9.29;100.00
28167;BME280;15455;53.376;-6.262;2023-03-31T08:26:58;98664.16;;;9.31;100.00
28167;BME280;15455;53.376;-6.262;2023-03-31T08:29:44;98667.75;;;9.27;100.00
28167;BME280;15455;53.376;-6.262;2023-03-31T08:32:33;98668.06;;;9.18;100.00
28167;BME280;15455;53.376;-6.262;2023-03-31T08:35:19;98675.81;;;9.19;100.00
28167;BME280;15455;53.376;-6.262;2023-03-31T08:38:05;98677.56;;;9.19;100.00
28167;BME280;15455;53.376;-6.262;2023-03-31T08:40:51;98690.50;;;9.22;100.00
28167;BME280;15455;53.376;-6.262;2023-03-31T08:43:40;98691.28;;;9.24;100.00
28167;BME280;15455;53.376;-6.262;2023-03-31T08:46:30;98689.47;;;9.28;100.00
28167;BME280;15455;53.376;-6.262;2023-03-31T08:49:19;98695.50;;;9.28;100.00
28167;BME280;15455;53.376;-6.262;2023-03-31T08:52:12;98701.53;;;9.30;100.00
28167;BME280;15455;53.376;-6.262;2023-03-31T08:55:02;98702.13;;;9.38;100.00
28167;BME280;15455;53.376;-6.262;2023-03-31T08:58:02;98708.81;;;9.47;100.00
28167;BME280;15455;53.376;-6.262;2023-03-31T09:10:10;98725.88;;;9.56;100.00
28167;BME280;15455;53.376;-6.262;2023-03-31T09:13:41;98725.81;;;9.59;100.00
28167;BME280;15455;53.376;-6.262;2023-03-31T09:16:34;98726.34;;;9.69;100.00
28167;BME280;15455;53.376;-6.262;2023-03-31T09:19:33;98728.69;;;9.78;100.00
28167;BME280;15455;53.376;-6.262;2023-03-31T09:22:28;98734.47;;;9.88;100.00
28167;BME280;15455;53.376;-6.262;2023-03-31T09:25:29;98742.09;;;9.94;100.00
28167;BME280;15455;53.376;-6.262;2023-03-31T09:28:31;98739.63;;;9.89;100.00
28167;BME280;15455;53.376;-6.262;2023-03-31T09:31:19;98749.91;;;9.94;100.00
28167;BME280;15455;53.376;-6.262;2023-03-31T09:34:12;98751.50;;;9.98;100.00
28167;BME280;15455;53.376;-6.262;2023-03-31T09:36:58;98757.34;;;10.05;100.00
28167;BME280;15455;53.376;-6.262;2023-03-31T09:39:44;98759.13;;;10.04;100.00
28167;BME280;15455;53.376;-6.262;2023-03-31T09:42:30;98759.84;;;10.08;100.00
28167;BME280;15455;53.376;-6.262;2023-03-31T09:45:17;98765.16;;;10.05;100.00
28167;BME280;15455;53.376;-6.262;2023-03-31T09:48:11;98758.34;;;10.01;100.00
28167;BME280;15455;53.376;-6.262;2023-03-31T09:51:06;98765.94;;;10.08;100.00
28167;BME280;15455;53.376;-6.262;2023-03-31T09:54:01;98771.84;;;10.14;100.00
28167;BME280;15455;53.376;-6.262;2023-03-31T09:56:51;98777.22;;;10.09;100.00
28167;BME280;15455;53.376;-6.262;2023-03-31T09:59:40;98781.25;;;10.18;100.00
28167;BME280;15455;53.376;-6.262;2023-03-31T10:05:36;98787.25;;;10.21;100.00
28167;BME280;15455;53.376;-6.262;2023-03-31T10:08:30;98791.38;;;10.29;100.00
28167;BME280;15455;53.376;-6.262;2023-03-31T10:11:17;98794.81;;;10.29;100.00
28167;BME280;15455;53.376;-6.262;2023-03-31T10:14:05;98797.13;;;10.38;100.00
28167;BME280;15455;53.376;-6.262;2023-03-31T10:16:55;98809.13;;;10.44;100.00
28167;BME280;15455;53.376;-6.262;2023-03-31T10:19:57;98810.16;;;10.38;100.00
28167;BME280;15455;53.376;-6.262;2023-03-31T10:22:44;98812.06;;;10.33;100.00
28167;BME280;15455;53.376;-6.262;2023-03-31T10:25:31;98816.50;;;10.30;100.00
28167;BME280;15455;53.376;-6.262;2023-03-31T10:28:19;98822.97;;;10.18;100.00
28167;BME280;15455;53.376;-6.262;2023-03-31T10:31:05;98833.50;;;10.15;100.00
28167;BME280;15455;53.376;-6.262;2023-03-31T10:33:53;98834.19;;;10.21;100.00
28167;BME280;15455;53.376;-6.262;2023-03-31T10:36:49;98837.63;;;10.22;100.00
28167;BME280;15455;53.376;-6.262;2023-03-31T10:39:39;98837.66;;;10.20;100.00
28167;BME280;15455;53.376;-6.262;2023-03-31T10:42:26;98844.41;;;10.28;100.00
28167;BME280;15455;53.376;-6.262;2023-03-31T10:45:23;98850.31;;;10.34;100.00
28167;BME280;15455;53.376;-6.262;2023-03-31T10:48:28;98857.28;;;10.32;100.00
28167;BME280;15455;53.376;-6.262;2023-03-31T10:51:17;98860.75;;;10.33;100.00
28167;BME280;15455;53.376;-6.262;2023-03-31T10:54:03;98857.34;;;10.31;100.00
28167;BME280;15455;53.376;-6.262;2023-03-31T10:56:54;98866.81;;;10.33;100.00
28167;BME280;15455;53.376;-6.262;2023-03-31T10:59:56;98866.53;;;10.42;100.00
28167;BME280;15455;53.376;-6.262;2023-03-31T11:08:35;98890.31;;;10.60;100.00
28167;BME280;15455;53.376;-6.262;2023-03-31T11:11:48;98884.75;;;10.44;100.00
28167;BME280;15455;53.376;-6.262;2023-03-31T11:18:16;98909.00;;;10.18;100.00
28167;BME280;15455;53.376;-6.262;2023-03-31T11:21:19;98920.22;;;10.21;100.00
28167;BME280;15455;53.376;-6.262;2023-03-31T11:24:16;98925.38;;;10.23;100.00
28167;BME280;15455;53.376;-6.262;2023-03-31T11:30:24;98930.34;;;10.31;100.00
28167;BME280;15455;53.376;-6.262;2023-03-31T11:42:59;98943.09;;;10.41;100.00
28167;BME280;15455;53.376;-6.262;2023-03-31T11:45:52;98952.03;;;10.61;100.00
28167;BME280;15455;53.376;-6.262;2023-03-31T11:48:47;98955.47;;;10.63;100.00
28167;BME280;15455;53.376;-6.262;2023-03-31T11:58:01;98960.94;;;10.82;100.00
28167;BME280;15455;53.376;-6.262;2023-03-31T12:00:55;98962.56;;;10.86;100.00
28167;BME280;15455;53.376;-6.262;2023-03-31T12:03:58;98966.78;;;10.89;100.00
28167;BME280;15455;53.376;-6.262;2023-03-31T12:06:46;98963.59;;;10.81;100.00
28167;BME280;15455;53.376;-6.262;2023-03-31T12:09:53;98975.41;;;10.92;100.00
28167;BME280;15455;53.376;-6.262;2023-03-31T12:12:56;98971.97;;;10.90;100.00
28167;BME280;15455;53.376;-6.262;2023-03-31T12:15:57;98973.63;;;10.93;100.00
28167;BME280;15455;53.376;-6.262;2023-03-31T12:21:50;98988.56;;;10.89;100.00
28167;BME280;15455;53.376;-6.262;2023-03-31T12:24:38;98983.91;;;10.99;100.00
28167;BME280;15455;53.376;-6.262;2023-03-31T12:30:29;98987.53;;;11.20;100.00
28167;BME280;15455;53.376;-6.262;2023-03-31T12:33:40;98991.06;;;11.44;100.00
28167;BME280;15455;53.376;-6.262;2023-03-31T12:45:59;98992.38;;;12.30;100.00
28167;BME280;15455;53.376;-6.262;2023-03-31T12:52:03;99002.88;;;12.75;100.00
28167;BME280;15455;53.376;-6.262;2023-03-31T12:57:47;99013.41;;;12.95;100.00
28167;BME280;15455;53.376;-6.262;2023-03-31T13:00:32;99007.75;;;12.84;100.00
28167;BME280;15455;53.376;-6.262;2023-03-31T13:12:07;99031.28;;;11.91;100.00
28167;BME280;15455;53.376;-6.262;2023-03-31T13:14:57;99047.06;;;11.88;100.00
28167;BME280;15455;53.376;-6.262;2023-03-31T13:17:58;99051.97;;;11.72;100.00
28167;BME280;15455;53.376;-6.262;2023-03-31T13:20:45;99057.84;;;11.78;100.00
28167;BME280;15455;53.376;-6.262;2023-03-31T13:23:34;99067.34;;;11.81;100.00
28167;BME280;15455;53.376;-6.262;2023-03-31T13:32:23;99086.13;;;11.67;100.00
28167;BME280;15455;53.376;-6.262;2023-03-31T13:35:24;99087.91;;;11.65;100.00
28167;BME280;15455;53.376;-6.262;2023-03-31T14:00:36;99099.22;;;11.65;100.00
28167;BME280;15455;53.376;-6.262;2023-03-31T14:03:36;99113.53;;;11.80;100.00
28167;BME280;15455;53.376;-6.262;2023-03-31T14:09:33;99111.88;;;11.78;100.00
28167;BME280;15455;53.376;-6.262;2023-03-31T14:12:35;99114.50;;;11.78;100.00
28167;BME280;15455;53.376;-6.262;2023-03-31T14:15:21;99122.22;;;11.81;100.00
28167;BME280;15455;53.376;-6.262;2023-03-31T14:18:09;99130.63;;;11.91;100.00
28167;BME280;15455;53.376;-6.262;2023-03-31T14:30:47;99141.47;;;11.78;100.00
28167;BME280;15455;53.376;-6.262;2023-03-31T14:36:57;99159.47;;;11.61;100.00
28167;BME280;15455;53.376;-6.262;2023-03-31T14:39:46;99163.06;;;11.58;100.00
28167;BME280;15455;53.376;-6.262;2023-03-31T14:42:40;99171.75;;;11.59;100.00
28167;BME280;15455;53.376;-6.262;2023-03-31T14:45:29;99177.59;;;11.65;100.00
28167;BME280;15455;53.376;-6.262;2023-03-31T14:48:15;99178.13;;;11.77;100.00
28167;BME280;15455;53.376;-6.262;2023-03-31T14:51:02;99183.69;;;11.93;100.00
28167;BME280;15455;53.376;-6.262;2023-03-31T14:53:47;99191.38;;;11.99;100.00
28167;BME280;15455;53.376;-6.262;2023-03-31T14:56:40;99184.91;;;11.82;100.00
28167;BME280;15455;53.376;-6.262;2023-03-31T14:59:28;99182.34;;;11.81;100.00
28167;BME280;15455;53.376;-6.262;2023-03-31T15:02:22;99182.59;;;11.73;100.00
28167;BME280;15455;53.376;-6.262;2023-03-31T15:08:17;99199.78;;;11.80;100.00
28167;BME280;15455;53.376;-6.262;2023-03-31T15:11:08;99198.69;;;11.88;100.00
28167;BME280;15455;53.376;-6.262;2023-03-31T15:13:58;99218.22;;;12.04;100.00
28167;BME280;15455;53.376;-6.262;2023-03-31T15:16:49;99213.59;;;12.12;100.00
28167;BME280;15455;53.376;-6.262;2023-03-31T15:19:35;99215.72;;;12.01;100.00
28167;BME280;15455;53.376;-6.262;2023-03-31T15:22:23;99219.16;;;12.03;100.00
28167;BME280;15455;53.376;-6.262;2023-03-31T15:25:12;99230.59;;;11.99;100.00
28167;BME280;15455;53.376;-6.262;2023-03-31T15:28:13;99230.13;;;11.86;100.00
28167;BME280;15455;53.376;-6.262;2023-03-31T15:31:02;99233.22;;;11.71;100.00
28167;BME280;15455;53.376;-6.262;2023-03-31T15:33:55;99238.09;;;11.53;100.00
28167;BME280;15455;53.376;-6.262;2023-03-31T15:36:40;99247.28;;;11.38;100.00
28167;BME280;15455;53.376;-6.262;2023-03-31T15:39:31;99249.50;;;11.21;100.00
28167;BME280;15455;53.376;-6.262;2023-03-31T15:42:19;99257.75;;;11.07;100.00
28167;BME280;15455;53.376;-6.262;2023-03-31T15:48:15;99265.84;;;10.98;100.00
28167;BME280;15455;53.376;-6.262;2023-03-31T15:51:24;99274.66;;;10.93;100.00
28167;BME280;15455;53.376;-6.262;2023-03-31T15:57:14;99279.75;;;10.98;100.00
28167;BME280;15455;53.376;-6.262;2023-03-31T16:00:03;99283.25;;;10.97;100.00
28167;BME280;15455;53.376;-6.262;2023-03-31T16:02:59;99285.88;;;10.97;100.00
28167;BME280;15455;53.376;-6.262;2023-03-31T16:05:57;99293.63;;;11.00;100.00
28167;BME280;15455;53.376;-6.262;2023-03-31T16:09:07;99286.13;;;10.88;100.00
28167;BME280;15455;53.376;-6.262;2023-03-31T16:11:55;99297.47;;;10.87;100.00
28167;BME280;15455;53.376;-6.262;2023-03-31T16:14:57;99304.44;;;10.86;100.00
28167;BME280;15455;53.376;-6.262;2023-03-31T16:17:50;99310.66;;;10.82;100.00
28167;BME280;15455;53.376;-6.262;2023-03-31T16:20:57;99313.38;;;10.77;100.00
28167;BME280;15455;53.376;-6.262;2023-03-31T16:23:51;99319.38;;;10.81;100.00
28167;BME280;15455;53.376;-6.262;2023-03-31T16:26:37;99324.56;;;10.81;100.00
28167;BME280;15455;53.376;-6.262;2023-03-31T16:29:23;99333.00;;;10.92;100.00
28167;BME280;15455;53.376;-6.262;2023-03-31T16:32:16;99344.63;;;11.12;100.00
28167;BME280;15455;53.376;-6.262;2023-03-31T16:35:04;99351.34;;;11.22;100.00
28167;BME280;15455;53.376;-6.262;2023-03-31T16:37:53;99358.06;;;11.31;100.00
28167;BME280;15455;53.376;-6.262;2023-03-31T16:40:40;99352.59;;;11.39;100.00
28167;BME280;15455;53.376;-6.262;2023-03-31T16:43:28;99367.16;;;11.47;100.00
28167;BME280;15455;53.376;-6.262;2023-03-31T16:46:15;99361.81;;;11.52;100.00
28167;BME280;15455;53.376;-6.262;2023-03-31T16:49:01;99372.91;;;11.60;100.00
28167;BME280;15455;53.376;-6.262;2023-03-31T16:51:46;99370.38;;;11.57;100.00
28167;BME280;15455;53.376;-6.262;2023-03-31T16:54:31;99372.53;;;11.43;100.00
28167;BME280;15455;53.376;-6.262;2023-03-31T16:57:16;99375.03;;;11.46;100.00
28167;BME280;15455;53.376;-6.262;2023-03-31T17:00:03;99387.47;;;11.38;100.00
28167;BME280;15455;53.376;-6.262;2023-03-31T17:02:48;99387.91;;;11.21;100.00
28167;BME280;15455;53.376;-6.262;2023-03-31T17:05:42;99384.84;;;11.06;100.00
28167;BME280;15455;53.376;-6.262;2023-03-31T17:08:28;99391.19;;;10.96;100.00
28167;BME280;15455;53.376;-6.262;2023-03-31T17:11:13;99400.84;;;10.92;100.00
28167;BME280;15455;53.376;-6.262;2023-03-31T17:13:59;99408.88;;;10.85;100.00
28167;BME280;15455;53.376;-6.262;2023-03-31T17:16:44;99416.13;;;10.73;100.00
28167;BME280;15455;53.376;-6.262;2023-03-31T17:19:32;99423.19;;;10.68;100.00
28167;BME280;15455;53.376;-6.262;2023-03-31T17:22:18;99432.13;;;10.58;100.00
28167;BME280;15455;53.376;-6.262;2023-03-31T17:25:04;99440.16;;;10.50;100.00
28167;BME280;15455;53.376;-6.262;2023-03-31T17:27:49;99440.50;;;10.33;100.00
28167;BME280;15455;53.376;-6.262;2023-03-31T17:30:35;99457.19;;;10.26;100.00